createdAt,value
2022-11-28T00:00:40.605Z,26.67
2022-11-28T00:04:41.169Z,29.4
2022-11-28T00:08:40.424Z,29.77
2022-11-28T00:12:40.561Z,29.3
2022-11-28T00:16:40.551Z,32.73
2022-11-28T00:20:40.435Z,30.53
2022-11-28T00:24:41.281Z,26.9
2022-11-28T00:28:40.527Z,27.9
2022-11-28T00:32:40.537Z,33.2
2022-11-28T00:36:41.248Z,33.1
2022-11-28T00:40:40.776Z,28.3
2022-11-28T00:44:40.966Z,38.07
2022-11-28T00:48:40.957Z,32.9
2022-11-28T00:52:40.443Z,40.97
2022-11-28T00:56:40.488Z,33.83
2022-11-28T01:00:40.581Z,32.9
2022-11-28T01:04:40.938Z,38.33
2022-11-28T01:08:40.475Z,31.4
2022-11-28T01:12:40.507Z,35.63
2022-11-28T01:16:40.338Z,27.27
2022-11-28T01:20:40.541Z,30.03
2022-11-28T01:24:41.093Z,32.5
2022-11-28T01:28:40.633Z,34.13
2022-11-28T01:32:40.486Z,34.23
2022-11-28T01:36:40.510Z,35.8
2022-11-28T01:40:40.358Z,31.87
2022-11-28T01:44:40.916Z,36.93
2022-11-28T01:48:39.243Z,33
2022-11-28T01:52:40.534Z,31.73
2022-11-28T01:56:40.880Z,32.33
2022-11-28T02:00:39.751Z,39.27
2022-11-28T02:04:41.136Z,31.6
2022-11-28T02:08:40.529Z,36.67
2022-11-28T02:12:39.709Z,42.4
2022-11-28T02:16:40.681Z,36.73
2022-11-28T02:20:40.338Z,37.9
2022-11-28T02:24:40.982Z,45.47
2022-11-28T02:28:40.445Z,37.1
2022-11-28T02:32:40.955Z,36.13
2022-11-28T02:36:40.482Z,37.87
2022-11-28T02:40:40.611Z,36.9
2022-11-28T02:44:40.845Z,44.93
2022-11-28T02:48:40.905Z,41.9
2022-11-28T02:52:40.544Z,42.9
2022-11-28T02:56:40.485Z,42.3
2022-11-28T03:00:40.174Z,40.2
2022-11-28T03:04:40.947Z,37.37
2022-11-28T03:08:40.267Z,42.33
2022-11-28T03:12:40.759Z,45.07
2022-11-28T03:16:39.790Z,39.9
2022-11-28T03:20:40.502Z,46.03
2022-11-28T03:24:40.971Z,46.7
2022-11-28T03:28:43.571Z,46.33
2022-11-28T03:32:41.134Z,48.27
2022-11-28T03:36:41.185Z,55.9
2022-11-28T03:40:40.604Z,59.43
2022-11-28T03:44:40.804Z,49.07
2022-11-28T03:48:40.460Z,54.33
2022-11-28T03:52:40.745Z,52.17
2022-11-28T03:56:40.483Z,49.37
2022-11-28T04:00:40.534Z,62.93
2022-11-28T04:04:40.747Z,65.37
2022-11-28T04:08:40.581Z,56.17
2022-11-28T04:12:40.486Z,60
2022-11-28T04:16:39.706Z,60.9
2022-11-28T04:20:41.001Z,68.73
2022-11-28T04:24:40.714Z,59.67
2022-11-28T04:28:40.614Z,56.57
2022-11-28T04:32:40.533Z,50.17
2022-11-28T04:36:40.527Z,63.33
2022-11-28T04:40:40.500Z,55.53
2022-11-28T04:44:40.821Z,62.87
2022-11-28T04:48:40.660Z,65.9
2022-11-28T04:52:40.588Z,57.83
2022-11-28T04:56:40.432Z,52.8
2022-11-28T05:00:40.683Z,58.3
2022-11-28T05:04:40.768Z,67.23
2022-11-28T05:08:40.511Z,57.5
2022-11-28T05:12:40.464Z,60.63
2022-11-28T05:16:39.508Z,68.33
2022-11-28T05:20:40.815Z,62.73
2022-11-28T05:24:40.710Z,65.1
2022-11-28T05:28:40.446Z,59.23
2022-11-28T05:32:41.118Z,55.07
2022-11-28T05:36:40.639Z,58.1
2022-11-28T05:40:40.607Z,66.87
2022-11-28T05:44:39.861Z,61.63
2022-11-28T05:48:41.150Z,59.4
2022-11-28T05:52:40.541Z,59.87
2022-11-28T05:56:42.487Z,54.87
2022-11-28T06:00:40.760Z,64.57
2022-11-28T06:04:40.749Z,61.67
2022-11-28T06:08:40.836Z,73.07
2022-11-28T06:12:40.462Z,54.47
2022-11-28T06:16:40.575Z,67.07
2022-11-28T06:20:40.616Z,62.43
2022-11-28T06:24:40.630Z,51.17
2022-11-28T06:28:40.537Z,60.17
2022-11-28T06:32:40.275Z,68.4
2022-11-28T06:36:40.332Z,50.2
2022-11-28T06:40:41.036Z,58.2
2022-11-28T06:44:40.567Z,57.33
2022-11-28T06:48:40.534Z,51.17
2022-11-28T06:52:39.595Z,50.9
2022-11-28T06:56:41.068Z,57.27
2022-11-28T07:00:40.681Z,59.63
2022-11-28T07:04:41.213Z,44.53
2022-11-28T07:08:40.488Z,50.77
2022-11-28T07:12:40.577Z,47.03
2022-11-28T07:16:40.684Z,47.03
2022-11-28T07:20:40.481Z,55.03
2022-11-28T07:24:40.456Z,57.47
2022-11-28T07:28:40.378Z,62.07
2022-11-28T07:32:40.616Z,52.77
2022-11-28T07:36:40.559Z,69.4
2022-11-28T07:40:40.519Z,61.67
2022-11-28T07:44:40.435Z,65.6
2022-11-28T07:48:40.331Z,55.23
2022-11-28T07:52:40.721Z,52.87
2022-11-28T07:57:10.852Z,55.8
2022-11-28T08:00:40.989Z,56.57
2022-11-28T08:04:47.599Z,48.17
2022-11-28T08:08:40.631Z,57.83
2022-11-28T08:12:40.379Z,50.37
2022-11-28T08:16:40.626Z,51.73
2022-11-28T08:20:40.530Z,45.47
2022-11-28T08:24:40.935Z,42.67
2022-11-28T08:28:40.232Z,50.47
2022-11-28T08:32:41.180Z,44.67
2022-11-28T08:36:40.578Z,44.4
2022-11-28T08:40:40.460Z,46.9
2022-11-28T08:44:40.440Z,41.53
2022-11-28T08:48:40.815Z,37.3
2022-11-28T08:52:40.551Z,39.87
2022-11-28T08:56:41.277Z,38.77
2022-11-28T09:00:40.563Z,40.03
2022-11-28T09:04:39.624Z,41.5
2022-11-28T09:08:40.836Z,42.9
2022-11-28T09:12:40.565Z,41
2022-11-28T09:16:40.430Z,35.8
2022-11-28T09:20:40.637Z,45.13
2022-11-28T09:24:40.493Z,37.97
2022-11-28T09:28:40.576Z,39.47
2022-11-28T09:32:39.330Z,36
2022-11-28T09:36:40.606Z,41.63
2022-11-28T09:40:40.644Z,33.33
2022-11-28T09:44:40.582Z,29.8
2022-11-28T09:48:40.750Z,35.87
2022-11-28T09:52:40.647Z,35.33
2022-11-28T09:56:40.599Z,22.63
2022-11-28T10:00:40.537Z,27.5
2022-11-28T10:04:40.747Z,26.53
2022-11-28T10:08:40.328Z,30.47
2022-11-28T10:12:40.898Z,29.57
2022-11-28T10:16:40.649Z,31.77
2022-11-28T10:20:40.631Z,31.63
2022-11-28T10:24:40.547Z,22.2
2022-11-28T10:28:40.592Z,29.93
2022-11-28T10:32:40.587Z,29.37
2022-11-28T10:36:40.355Z,23
2022-11-28T10:40:40.505Z,26
2022-11-28T10:44:40.474Z,24.9
2022-11-28T10:48:41.165Z,21.97
2022-11-28T10:52:41.071Z,20.93
2022-11-28T10:56:40.486Z,21.13
2022-11-28T11:00:40.614Z,24.87
2022-11-28T11:04:40.593Z,18.63
2022-11-28T11:08:40.603Z,22.8
2022-11-28T11:12:40.560Z,22.8
2022-11-28T11:16:40.833Z,21.67
2022-11-28T11:20:40.561Z,21.73
2022-11-28T11:24:40.462Z,20.42
2022-11-28T11:28:40.508Z,20.98
2022-11-28T11:32:40.746Z,15.77
2022-11-28T11:36:40.578Z,19.97
2022-11-28T11:40:40.941Z,25.73
2022-11-28T11:44:40.495Z,18.77
2022-11-28T11:48:40.329Z,18.87
2022-11-28T11:52:40.527Z,19.87
2022-11-28T11:56:39.632Z,22.9
2022-11-28T12:00:40.575Z,17.1
2022-11-28T12:04:46.489Z,19.58
2022-11-28T12:08:41.126Z,19.48
2022-11-28T12:12:40.963Z,22.25
2022-11-28T12:16:40.647Z,26.55
2022-11-28T12:20:40.505Z,21.05
2022-11-28T12:24:40.685Z,24
2022-11-28T12:28:40.428Z,23.75
2022-11-28T12:32:39.875Z,22.05
2022-11-28T12:36:41.196Z,24.87
2022-11-28T12:40:40.524Z,24.8
2022-11-28T12:44:40.525Z,24.87
2022-11-28T12:48:40.547Z,20.75
2022-11-28T12:52:39.381Z,26.3
2022-11-28T12:56:40.451Z,22.98
2022-11-28T13:00:40.676Z,23.38
2022-11-28T13:04:40.726Z,22.98
2022-11-28T13:08:46.502Z,21.4
2022-11-28T13:12:39.365Z,22.27
2022-11-28T13:16:40.341Z,19.07
2022-11-28T13:20:40.420Z,24.9
2022-11-28T13:24:40.373Z,22.85
2022-11-28T13:28:41.283Z,28.47
2022-11-28T13:32:40.937Z,24.9
2022-11-28T13:40:41.288Z,20.62
2022-11-28T13:44:40.564Z,28.4
2022-11-28T13:52:40.455Z,26.27
2022-11-28T13:56:40.497Z,26.53
2022-11-28T14:00:40.604Z,26.47
2022-11-28T14:04:40.617Z,26.73
2022-11-28T14:08:40.460Z,24.73
2022-11-28T14:12:40.661Z,24.87
2022-11-28T14:16:39.540Z,20.77
2022-11-28T14:20:40.390Z,22.6
2022-11-28T14:24:41.262Z,22.47
2022-11-28T14:28:40.472Z,22.53
2022-11-28T14:32:40.435Z,22.37
2022-11-28T14:36:40.523Z,20.03
2022-11-28T14:40:40.755Z,25.33
2022-11-28T14:44:40.488Z,24.2
2022-11-28T14:48:40.583Z,22.47
2022-11-28T14:52:41.589Z,25.1
2022-11-28T14:56:40.612Z,25.83
2022-11-28T15:00:40.721Z,22.63
2022-11-28T15:04:40.453Z,24
2022-11-28T15:08:40.503Z,27.43
2022-11-28T15:12:40.705Z,23.3
2022-11-28T15:16:42.816Z,27.63
2022-11-28T15:20:40.556Z,28.13
2022-11-28T15:24:40.737Z,26.87
2022-11-28T15:28:40.713Z,31.23
2022-11-28T15:32:40.601Z,30.07
2022-11-28T15:36:40.691Z,27.8
2022-11-28T15:40:40.561Z,33.8
2022-11-28T15:44:40.645Z,38.87
2022-11-28T15:48:40.677Z,37.37
2022-11-28T15:52:40.502Z,36.07
2022-11-28T15:56:40.525Z,34.07
2022-11-28T16:00:40.694Z,39.67
2022-11-28T16:04:40.704Z,36.5
2022-11-28T16:08:40.488Z,38.23
2022-11-28T16:12:40.506Z,41.67
2022-11-28T16:16:40.633Z,40.57
2022-11-28T16:20:40.464Z,37.37
2022-11-28T16:24:40.536Z,40
2022-11-28T16:28:40.503Z,35.5
2022-11-28T16:32:40.487Z,40.37
2022-11-28T16:36:39.348Z,38.33
2022-11-28T16:40:40.658Z,37.47
2022-11-28T16:44:40.441Z,37.3
2022-11-28T16:48:40.764Z,35.63
2022-11-28T16:52:40.519Z,44.3
2022-11-28T16:56:40.563Z,35.17
2022-11-28T17:00:40.791Z,36.47
2022-11-28T17:04:40.662Z,43
2022-11-28T17:08:40.508Z,34.03
2022-11-28T17:12:40.462Z,45.6
2022-11-28T17:16:40.810Z,39.1
2022-11-28T17:20:40.644Z,39.27
2022-11-28T17:24:40.603Z,41.5
2022-11-28T17:28:40.513Z,49.57
2022-11-28T17:32:40.469Z,42.03
2022-11-28T17:36:40.295Z,39.6
2022-11-28T17:40:40.762Z,47.47
2022-11-28T17:44:40.473Z,42.5
2022-11-28T17:48:40.437Z,45.53
2022-11-28T17:52:40.426Z,43.77
2022-11-28T17:56:40.467Z,42.53
2022-11-28T18:00:41.205Z,47.7
2022-11-28T18:04:40.509Z,46.3
2022-11-28T18:08:40.534Z,48.17
2022-11-28T18:12:40.451Z,40.3
2022-11-28T18:16:40.353Z,50.4
2022-11-28T18:20:40.578Z,47.23
2022-11-28T18:24:40.557Z,45.87
2022-11-28T18:28:40.657Z,48.97
2022-11-28T18:32:40.606Z,48.77
2022-11-28T18:36:40.603Z,51.83
2022-11-28T18:40:40.656Z,52.1
2022-11-28T18:44:40.435Z,51.77
2022-11-28T18:48:40.470Z,53.67
2022-11-28T18:52:39.941Z,52.97
2022-11-28T18:56:40.348Z,53.57
2022-11-28T19:00:40.847Z,68.07
2022-11-28T19:04:40.570Z,55.3
2022-11-28T19:08:40.577Z,59.07
2022-11-28T19:12:40.608Z,60.73
2022-11-28T19:16:40.659Z,63.83
2022-11-28T19:20:40.423Z,64.37
2022-11-28T19:24:40.794Z,69.73
2022-11-28T19:28:40.581Z,66.5
2022-11-28T19:32:40.642Z,79.83
2022-11-28T19:36:40.287Z,74.1
2022-11-28T19:40:40.688Z,61.93
2022-11-28T19:44:40.467Z,52.2
2022-11-28T19:48:40.439Z,72.9
2022-11-28T19:52:40.451Z,58.73
2022-11-28T19:56:40.396Z,68.4
2022-11-28T20:00:40.808Z,65.33
2022-11-28T20:04:40.424Z,60.23
2022-11-28T20:08:40.921Z,65
2022-11-28T20:12:40.483Z,73.3
2022-11-28T20:16:40.416Z,57.03
2022-11-28T20:20:40.527Z,58.07
2022-11-28T20:24:40.418Z,66.2
2022-11-28T20:28:40.312Z,61.6
2022-11-28T20:32:40.534Z,64.93
2022-11-28T20:36:40.259Z,61.6
2022-11-28T20:40:40.255Z,64.13
2022-11-28T20:44:40.564Z,57.47
2022-11-28T20:48:40.744Z,66.9
2022-11-28T20:52:40.422Z,66.9
2022-11-28T21:00:40.512Z,62.93
2022-11-28T21:04:40.544Z,68.43
2022-11-28T21:08:40.939Z,65.8
2022-11-28T21:12:40.503Z,65.37
2022-11-28T21:16:41.007Z,64.43
2022-11-28T21:20:40.562Z,62.37
2022-11-28T21:24:40.484Z,64.6
2022-11-28T21:28:40.520Z,64.57
2022-11-28T21:32:40.499Z,61.1
2022-11-28T21:36:40.436Z,66.7
2022-11-28T21:40:40.587Z,63.9
2022-11-28T21:44:40.654Z,64.03
2022-11-28T21:48:40.616Z,73.97
2022-11-28T21:52:40.702Z,63.47
2022-11-28T21:56:40.602Z,67.43
2022-11-28T22:00:53.207Z,68.97
2022-11-28T22:04:40.361Z,69.83
2022-11-28T22:08:40.733Z,65.93
2022-11-28T22:12:40.663Z,67.3
2022-11-28T22:16:39.925Z,69.77
2022-11-28T22:20:43.733Z,71.77
2022-11-28T22:24:40.488Z,66.2
2022-11-28T22:28:40.481Z,66.8
2022-11-28T22:32:40.576Z,65.33
2022-11-28T22:36:40.298Z,70.37
2022-11-28T22:40:40.578Z,70.03
2022-11-28T22:44:40.528Z,68.87
2022-11-28T22:48:40.425Z,68
2022-11-28T22:52:40.510Z,67.7
2022-11-28T22:56:40.476Z,68.47
2022-11-28T23:00:39.865Z,62.97
2022-11-28T23:04:39.314Z,69.93
2022-11-28T23:08:40.543Z,79.47
2022-11-28T23:12:40.975Z,71.27
2022-11-28T23:16:40.472Z,75.27
2022-11-28T23:20:40.453Z,68.2
2022-11-28T23:24:39.652Z,77.17
2022-11-28T23:28:40.509Z,68.4
2022-11-28T23:32:40.534Z,68.4
2022-11-28T23:36:42.635Z,79.47
2022-11-28T23:40:41.222Z,67.83
2022-11-28T23:44:39.697Z,65.67
2022-11-28T23:48:41.202Z,63.43
2022-11-28T23:52:40.486Z,65.83
2022-11-28T23:56:40.426Z,63.97
